Purdy, Missouri
Current Conditions -  °F | °C
As of 11:55 PM on Tuesday 21 Oct 2014 (Local Time) from KHFJ Reporting Station
Clear Clear  
Wind Chill: 57°   Ceiling: Unl
Heat Index: 57°   Visibility: 10mi
Dew Point: 45°   Wind: 8mph
Humidity: 63%   Direction: 100°E
Pressure: 30.12"   Gusts: NA
Location:  36.82°N, 93.92°W
Report Text: KHFJ 220455Z AUTO 10007KT 10SM CLR 14/07 A3012 RMK AO2
Loading
Personal Weather Stations






























Interactive Weather Map
Tropical Storm Tracking
New forecast layout! Learn more

10-Day Weather Forecast

Advertisements
Track Severe Weather on mobile